Terminal Aerodrome Forecast
Issued by NWS Jackson, MS

Home | Current Version | Previous Version | Text Only | Print | Product List | Glossary On
Versions: 1 2 3 4 5 6 7 8 9 10 11 12 13 14 15 16
000
FTUS44 KJAN 261100
TAFGLH
TAF
KGLH 261120Z 2612/2712 15006KT P6SM SCT100 OVC250
     FM261900 15010KT P6SM OVC050
     FM270400 15009KT P6SM -RA OVC025
     FM271000 14009KT 4SM -RA BR OVC015=

USA.gov is the U.S. government's official web portal to all federal, state and local government web resources and services.